sensor_id;sensor_type;location;lat;lon;timestamp;P1;durP1;ratioP1;P2;durP2;ratioP2
39218;SDS011;24934;52.752;6.964;2023-06-22T00:01:55;70.25;;;48.72;;
39218;SDS011;24934;52.752;6.964;2023-06-22T00:04:20;62.90;;;45.47;;
39218;SDS011;24934;52.752;6.964;2023-06-22T00:06:46;70.18;;;49.60;;
39218;SDS011;24934;52.752;6.964;2023-06-22T00:09:14;75.90;;;50.25;;
39218;SDS011;24934;52.752;6.964;2023-06-22T00:11:40;68.13;;;48.67;;
39218;SDS011;24934;52.752;6.964;2023-06-22T00:14:05;68.88;;;49.42;;
39218;SDS011;24934;52.752;6.964;2023-06-22T00:16:32;64.18;;;47.83;;
39218;SDS011;24934;52.752;6.964;2023-06-22T00:19:00;71.55;;;49.53;;
39218;SDS011;24934;52.752;6.964;2023-06-22T00:21:29;78.45;;;52.85;;
39218;SDS011;24934;52.752;6.964;2023-06-22T00:23:58;75.93;;;53.75;;
39218;SDS011;24934;52.752;6.964;2023-06-22T00:26:23;76.35;;;55.63;;
39218;SDS011;24934;52.752;6.964;2023-06-22T00:28:52;77.00;;;55.30;;
39218;SDS011;24934;52.752;6.964;2023-06-22T00:31:18;82.05;;;57.83;;
39218;SDS011;24934;52.752;6.964;2023-06-22T00:33:43;85.07;;;57.55;;
39218;SDS011;24934;52.752;6.964;2023-06-22T00:36:09;79.50;;;56.22;;
39218;SDS011;24934;52.752;6.964;2023-06-22T00:38:41;79.22;;;54.47;;
39218;SDS011;24934;52.752;6.964;2023-06-22T00:41:07;74.30;;;53.10;;
39218;SDS011;24934;52.752;6.964;2023-06-22T00:43:32;79.95;;;56.15;;
39218;SDS011;24934;52.752;6.964;2023-06-22T00:45:58;86.78;;;55.83;;
39218;SDS011;24934;52.752;6.964;2023-06-22T00:48:24;80.82;;;54.05;;
39218;SDS011;24934;52.752;6.964;2023-06-22T00:50:50;75.38;;;53.60;;
39218;SDS011;24934;52.752;6.964;2023-06-22T00:53:18;74.88;;;54.20;;
39218;SDS011;24934;52.752;6.964;2023-06-22T00:55:44;80.30;;;56.95;;
39218;SDS011;24934;52.752;6.964;2023-06-22T00:58:12;81.90;;;57.03;;
39218;SDS011;24934;52.752;6.964;2023-06-22T01:00:39;81.85;;;58.60;;
39218;SDS011;24934;52.752;6.964;2023-06-22T01:03:06;82.07;;;56.58;;
39218;SDS011;24934;52.752;6.964;2023-06-22T01:05:36;78.70;;;57.53;;
39218;SDS011;24934;52.752;6.964;2023-06-22T01:10:41;80.07;;;54.58;;
39218;SDS011;24934;52.752;6.964;2023-06-22T01:13:35;81.40;;;54.72;;
39218;SDS011;24934;52.752;6.964;2023-06-22T01:16:02;79.32;;;55.38;;
39218;SDS011;24934;52.752;6.964;2023-06-22T01:18:31;77.18;;;55.95;;
39218;SDS011;24934;52.752;6.964;2023-06-22T01:21:01;80.32;;;56.50;;
39218;SDS011;24934;52.752;6.964;2023-06-22T01:23:44;83.47;;;59.20;;
39218;SDS011;24934;52.752;6.964;2023-06-22T01:28:47;89.28;;;59.67;;
39218;SDS011;24934;52.752;6.964;2023-06-22T01:31:23;87.88;;;60.78;;
39218;SDS011;24934;52.752;6.964;2023-06-22T01:33:54;90.13;;;61.10;;
39218;SDS011;24934;52.752;6.964;2023-06-22T01:36:23;89.22;;;61.85;;
39218;SDS011;24934;52.752;6.964;2023-06-22T01:38:50;89.60;;;61.90;;
39218;SDS011;24934;52.752;6.964;2023-06-22T01:41:18;85.70;;;61.20;;
39218;SDS011;24934;52.752;6.964;2023-06-22T01:43:45;85.32;;;61.05;;
39218;SDS011;24934;52.752;6.964;2023-06-22T01:46:13;93.13;;;62.97;;
39218;SDS011;24934;52.752;6.964;2023-06-22T01:48:39;93.95;;;63.75;;
39218;SDS011;24934;52.752;6.964;2023-06-22T01:51:07;94.97;;;63.78;;
39218;SDS011;24934;52.752;6.964;2023-06-22T01:53:33;100.70;;;64.80;;
39218;SDS011;24934;52.752;6.964;2023-06-22T01:55:58;95.63;;;66.57;;
39218;SDS011;24934;52.752;6.964;2023-06-22T01:58:25;101.88;;;67.68;;
39218;SDS011;24934;52.752;6.964;2023-06-22T02:03:37;102.70;;;68.43;;
39218;SDS011;24934;52.752;6.964;2023-06-22T02:06:16;103.53;;;68.13;;
39218;SDS011;24934;52.752;6.964;2023-06-22T02:08:49;95.68;;;66.43;;
39218;SDS011;24934;52.752;6.964;2023-06-22T02:11:19;97.18;;;66.15;;
39218;SDS011;24934;52.752;6.964;2023-06-22T02:13:46;96.40;;;64.90;;
39218;SDS011;24934;52.752;6.964;2023-06-22T02:16:13;97.65;;;65.50;;
39218;SDS011;24934;52.752;6.964;2023-06-22T02:18:45;98.32;;;67.15;;
39218;SDS011;24934;52.752;6.964;2023-06-22T02:21:12;100.50;;;67.90;;
39218;SDS011;24934;52.752;6.964;2023-06-22T02:23:37;102.18;;;67.47;;
39218;SDS011;24934;52.752;6.964;2023-06-22T02:26:03;99.20;;;67.60;;
39218;SDS011;24934;52.752;6.964;2023-06-22T02:28:29;105.45;;;69.35;;
39218;SDS011;24934;52.752;6.964;2023-06-22T02:30:54;98.22;;;65.30;;
39218;SDS011;24934;52.752;6.964;2023-06-22T02:33:20;103.18;;;69.53;;
39218;SDS011;24934;52.752;6.964;2023-06-22T02:35:46;107.15;;;69.72;;
39218;SDS011;24934;52.752;6.964;2023-06-22T02:38:14;102.75;;;68.90;;
39218;SDS011;24934;52.752;6.964;2023-06-22T02:40:43;114.88;;;71.63;;
39218;SDS011;24934;52.752;6.964;2023-06-22T02:43:09;107.65;;;70.28;;
39218;SDS011;24934;52.752;6.964;2023-06-22T02:45:34;104.93;;;69.65;;
39218;SDS011;24934;52.752;6.964;2023-06-22T02:48:03;110.00;;;69.15;;
39218;SDS011;24934;52.752;6.964;2023-06-22T02:50:30;101.50;;;68.38;;
39218;SDS011;24934;52.752;6.964;2023-06-22T02:53:01;107.80;;;72.20;;
39218;SDS011;24934;52.752;6.964;2023-06-22T02:55:26;104.72;;;68.25;;
39218;SDS011;24934;52.752;6.964;2023-06-22T02:57:52;102.40;;;68.57;;
39218;SDS011;24934;52.752;6.964;2023-06-22T03:00:18;87.28;;;63.83;;
39218;SDS011;24934;52.752;6.964;2023-06-22T03:02:47;93.60;;;65.22;;
39218;SDS011;24934;52.752;6.964;2023-06-22T03:05:14;101.97;;;66.80;;
39218;SDS011;24934;52.752;6.964;2023-06-22T03:07:43;104.30;;;70.43;;
39218;SDS011;24934;52.752;6.964;2023-06-22T03:10:10;107.45;;;70.88;;
39218;SDS011;24934;52.752;6.964;2023-06-22T03:12:39;110.60;;;72.00;;
39218;SDS011;24934;52.752;6.964;2023-06-22T03:15:06;117.35;;;74.65;;
39218;SDS011;24934;52.752;6.964;2023-06-22T03:17:36;120.80;;;74.40;;
39218;SDS011;24934;52.752;6.964;2023-06-22T03:20:09;123.68;;;76.32;;
39218;SDS011;24934;52.752;6.964;2023-06-22T03:22:37;120.43;;;76.40;;
39218;SDS011;24934;52.752;6.964;2023-06-22T03:25:03;126.68;;;77.20;;
39218;SDS011;24934;52.752;6.964;2023-06-22T03:27:29;126.57;;;76.38;;
39218;SDS011;24934;52.752;6.964;2023-06-22T03:29:57;135.50;;;80.20;;
39218;SDS011;24934;52.752;6.964;2023-06-22T03:32:23;124.38;;;76.97;;
39218;SDS011;24934;52.752;6.964;2023-06-22T03:34:49;125.45;;;76.82;;
39218;SDS011;24934;52.752;6.964;2023-06-22T03:37:15;136.45;;;79.95;;
39218;SDS011;24934;52.752;6.964;2023-06-22T03:39:41;136.00;;;81.57;;
39218;SDS011;24934;52.752;6.964;2023-06-22T03:42:07;133.60;;;81.82;;
39218;SDS011;24934;52.752;6.964;2023-06-22T03:44:43;137.10;;;80.90;;
39218;SDS011;24934;52.752;6.964;2023-06-22T03:47:09;129.85;;;79.65;;
39218;SDS011;24934;52.752;6.964;2023-06-22T03:49:35;133.52;;;80.85;;
39218;SDS011;24934;52.752;6.964;2023-06-22T03:52:04;129.38;;;79.97;;
39218;SDS011;24934;52.752;6.964;2023-06-22T03:54:33;124.57;;;79.13;;
39218;SDS011;24934;52.752;6.964;2023-06-22T03:56:59;134.55;;;81.72;;
39218;SDS011;24934;52.752;6.964;2023-06-22T03:59:24;126.57;;;78.90;;
39218;SDS011;24934;52.752;6.964;2023-06-22T04:01:53;130.57;;;80.05;;
39218;SDS011;24934;52.752;6.964;2023-06-22T04:04:22;129.82;;;79.68;;
39218;SDS011;24934;52.752;6.964;2023-06-22T04:06:48;124.80;;;77.72;;
39218;SDS011;24934;52.752;6.964;2023-06-22T04:09:13;129.90;;;78.38;;
39218;SDS011;24934;52.752;6.964;2023-06-22T04:11:39;127.05;;;80.05;;
39218;SDS011;24934;52.752;6.964;2023-06-22T04:14:05;127.13;;;81.50;;
39218;SDS011;24934;52.752;6.964;2023-06-22T04:16:34;122.50;;;78.20;;
39218;SDS011;24934;52.752;6.964;2023-06-22T04:19:02;125.07;;;79.75;;
39218;SDS011;24934;52.752;6.964;2023-06-22T04:21:27;120.15;;;77.18;;
39218;SDS011;24934;52.752;6.964;2023-06-22T04:23:53;119.28;;;76.28;;
39218;SDS011;24934;52.752;6.964;2023-06-22T04:26:26;121.13;;;77.72;;
39218;SDS011;24934;52.752;6.964;2023-06-22T04:28:55;121.40;;;75.95;;
39218;SDS011;24934;52.752;6.964;2023-06-22T04:31:21;119.65;;;77.45;;
39218;SDS011;24934;52.752;6.964;2023-06-22T04:33:47;114.45;;;74.82;;
39218;SDS011;24934;52.752;6.964;2023-06-22T04:36:12;118.47;;;80.50;;
39218;SDS011;24934;52.752;6.964;2023-06-22T04:38:39;119.78;;;76.32;;
39218;SDS011;24934;52.752;6.964;2023-06-22T04:41:06;117.50;;;79.57;;
39218;SDS011;24934;52.752;6.964;2023-06-22T04:43:33;115.97;;;76.32;;
39218;SDS011;24934;52.752;6.964;2023-06-22T04:46:02;113.95;;;74.32;;
39218;SDS011;24934;52.752;6.964;2023-06-22T04:48:28;108.57;;;75.85;;
39218;SDS011;24934;52.752;6.964;2023-06-22T04:50:58;111.90;;;74.90;;
39218;SDS011;24934;52.752;6.964;2023-06-22T04:53:29;107.72;;;73.30;;
39218;SDS011;24934;52.752;6.964;2023-06-22T04:55:56;107.35;;;74.25;;
39218;SDS011;24934;52.752;6.964;2023-06-22T04:58:22;97.03;;;69.63;;
39218;SDS011;24934;52.752;6.964;2023-06-22T05:00:51;101.03;;;69.88;;
39218;SDS011;24934;52.752;6.964;2023-06-22T05:03:17;102.00;;;71.70;;
39218;SDS011;24934;52.752;6.964;2023-06-22T05:05:43;99.78;;;71.43;;
39218;SDS011;24934;52.752;6.964;2023-06-22T05:08:09;106.93;;;72.82;;
39218;SDS011;24934;52.752;6.964;2023-06-22T05:10:35;104.07;;;71.55;;
39218;SDS011;24934;52.752;6.964;2023-06-22T05:13:06;102.30;;;72.80;;
39218;SDS011;24934;52.752;6.964;2023-06-22T05:15:32;109.18;;;77.57;;
39218;SDS011;24934;52.752;6.964;2023-06-22T05:18:02;116.13;;;79.28;;
39218;SDS011;24934;52.752;6.964;2023-06-22T05:20:33;120.78;;;81.75;;
39218;SDS011;24934;52.752;6.964;2023-06-22T05:23:01;116.20;;;79.57;;
39218;SDS011;24934;52.752;6.964;2023-06-22T05:25:26;115.47;;;79.43;;
39218;SDS011;24934;52.752;6.964;2023-06-22T05:27:54;111.70;;;76.38;;
39218;SDS011;24934;52.752;6.964;2023-06-22T05:30:20;109.20;;;74.03;;
39218;SDS011;24934;52.752;6.964;2023-06-22T05:32:46;103.38;;;74.40;;
39218;SDS011;24934;52.752;6.964;2023-06-22T05:35:12;101.35;;;71.45;;
39218;SDS011;24934;52.752;6.964;2023-06-22T05:37:37;97.93;;;69.47;;
39218;SDS011;24934;52.752;6.964;2023-06-22T05:40:03;98.75;;;68.53;;
39218;SDS011;24934;52.752;6.964;2023-06-22T05:42:29;84.72;;;64.18;;
39218;SDS011;24934;52.752;6.964;2023-06-22T05:44:58;85.82;;;62.78;;
39218;SDS011;24934;52.752;6.964;2023-06-22T05:47:27;84.75;;;62.70;;
39218;SDS011;24934;52.752;6.964;2023-06-22T05:49:52;83.22;;;61.95;;
39218;SDS011;24934;52.752;6.964;2023-06-22T05:52:20;81.10;;;58.65;;
39218;SDS011;24934;52.752;6.964;2023-06-22T05:54:46;74.68;;;57.72;;
39218;SDS011;24934;52.752;6.964;2023-06-22T05:57:12;72.47;;;56.35;;
39218;SDS011;24934;52.752;6.964;2023-06-22T05:59:38;71.72;;;55.83;;
39218;SDS011;24934;52.752;6.964;2023-06-22T06:02:03;70.70;;;56.03;;
39218;SDS011;24934;52.752;6.964;2023-06-22T06:04:32;69.68;;;54.35;;
39218;SDS011;24934;52.752;6.964;2023-06-22T06:06:58;66.63;;;51.78;;
39218;SDS011;24934;52.752;6.964;2023-06-22T06:09:23;67.05;;;49.55;;
39218;SDS011;24934;52.752;6.964;2023-06-22T06:11:49;58.03;;;46.47;;
39218;SDS011;24934;52.752;6.964;2023-06-22T06:14:15;62.40;;;48.13;;
39218;SDS011;24934;52.752;6.964;2023-06-22T06:16:42;57.28;;;46.50;;
39218;SDS011;24934;52.752;6.964;2023-06-22T06:19:09;55.10;;;44.53;;
39218;SDS011;24934;52.752;6.964;2023-06-22T06:21:35;56.60;;;44.55;;
39218;SDS011;24934;52.752;6.964;2023-06-22T06:24:01;53.72;;;42.67;;
39218;SDS011;24934;52.752;6.964;2023-06-22T06:26:26;56.03;;;41.42;;
39218;SDS011;24934;52.752;6.964;2023-06-22T06:28:59;50.20;;;40.33;;
39218;SDS011;24934;52.752;6.964;2023-06-22T06:31:28;51.45;;;39.88;;
39218;SDS011;24934;52.752;6.964;2023-06-22T06:33:55;43.60;;;36.50;;
39218;SDS011;24934;52.752;6.964;2023-06-22T06:36:23;39.92;;;34.00;;
39218;SDS011;24934;52.752;6.964;2023-06-22T06:38:49;41.80;;;34.17;;
39218;SDS011;24934;52.752;6.964;2023-06-22T06:41:15;42.35;;;34.13;;
39218;SDS011;24934;52.752;6.964;2023-06-22T06:43:41;37.40;;;32.78;;
39218;SDS011;24934;52.752;6.964;2023-06-22T06:46:10;37.42;;;31.63;;
39218;SDS011;24934;52.752;6.964;2023-06-22T06:48:36;36.80;;;30.75;;
39218;SDS011;24934;52.752;6.964;2023-06-22T06:51:01;37.83;;;30.48;;
39218;SDS011;24934;52.752;6.964;2023-06-22T06:53:27;35.95;;;30.73;;
39218;SDS011;24934;52.752;6.964;2023-06-22T06:55:53;34.60;;;30.88;;
39218;SDS011;24934;52.752;6.964;2023-06-22T06:58:19;34.92;;;30.45;;
39218;SDS011;24934;52.752;6.964;2023-06-22T07:00:45;32.60;;;28.85;;
39218;SDS011;24934;52.752;6.964;2023-06-22T07:03:11;32.95;;;29.33;;
39218;SDS011;24934;52.752;6.964;2023-06-22T07:05:36;33.55;;;29.73;;
39218;SDS011;24934;52.752;6.964;2023-06-22T07:08:02;31.23;;;26.67;;
39218;SDS011;24934;52.752;6.964;2023-06-22T07:10:28;30.80;;;26.20;;
39218;SDS011;24934;52.752;6.964;2023-06-22T07:12:54;28.45;;;25.42;;
39218;SDS011;24934;52.752;6.964;2023-06-22T07:15:20;30.02;;;24.63;;
39218;SDS011;24934;52.752;6.964;2023-06-22T07:17:45;29.05;;;24.55;;
39218;SDS011;24934;52.752;6.964;2023-06-22T07:20:11;31.02;;;25.25;;
39218;SDS011;24934;52.752;6.964;2023-06-22T07:22:46;28.13;;;23.83;;
39218;SDS011;24934;52.752;6.964;2023-06-22T07:25:12;27.17;;;24.13;;
39218;SDS011;24934;52.752;6.964;2023-06-22T07:28:01;25.05;;;20.98;;
39218;SDS011;24934;52.752;6.964;2023-06-22T07:30:34;22.98;;;20.42;;
39218;SDS011;24934;52.752;6.964;2023-06-22T07:33:00;24.52;;;21.70;;
39218;SDS011;24934;52.752;6.964;2023-06-22T07:35:28;24.33;;;21.63;;
39218;SDS011;24934;52.752;6.964;2023-06-22T07:37:54;23.50;;;20.25;;
39218;SDS011;24934;52.752;6.964;2023-06-22T07:40:20;22.58;;;20.13;;
39218;SDS011;24934;52.752;6.964;2023-06-22T07:42:46;22.98;;;20.50;;
39218;SDS011;24934;52.752;6.964;2023-06-22T07:45:17;22.17;;;19.88;;
39218;SDS011;24934;52.752;6.964;2023-06-22T07:47:43;22.13;;;19.95;;
39218;SDS011;24934;52.752;6.964;2023-06-22T07:50:09;22.60;;;20.23;;
39218;SDS011;24934;52.752;6.964;2023-06-22T07:52:35;22.05;;;19.85;;
39218;SDS011;24934;52.752;6.964;2023-06-22T07:55:01;21.13;;;18.90;;
39218;SDS011;24934;52.752;6.964;2023-06-22T07:57:27;22.38;;;17.80;;
39218;SDS011;24934;52.752;6.964;2023-06-22T08:00:01;19.52;;;17.55;;
39218;SDS011;24934;52.752;6.964;2023-06-22T08:02:40;19.55;;;17.55;;
39218;SDS011;24934;52.752;6.964;2023-06-22T08:05:10;20.67;;;18.48;;
39218;SDS011;24934;52.752;6.964;2023-06-22T08:07:36;17.63;;;16.02;;
39218;SDS011;24934;52.752;6.964;2023-06-22T08:10:03;16.95;;;15.35;;
39218;SDS011;24934;52.752;6.964;2023-06-22T08:12:30;17.40;;;15.63;;
39218;SDS011;24934;52.752;6.964;2023-06-22T08:14:55;17.48;;;15.88;;
39218;SDS011;24934;52.752;6.964;2023-06-22T08:17:22;18.15;;;16.45;;
39218;SDS011;24934;52.752;6.964;2023-06-22T08:19:49;17.23;;;15.52;;
39218;SDS011;24934;52.752;6.964;2023-06-22T08:22:15;18.10;;;16.20;;
39218;SDS011;24934;52.752;6.964;2023-06-22T08:24:42;17.15;;;15.48;;
39218;SDS011;24934;52.752;6.964;2023-06-22T08:27:07;17.30;;;15.70;;
39218;SDS011;24934;52.752;6.964;2023-06-22T08:29:34;17.45;;;15.80;;
39218;SDS011;24934;52.752;6.964;2023-06-22T08:32:00;17.27;;;15.68;;
39218;SDS011;24934;52.752;6.964;2023-06-22T08:34:26;17.63;;;16.00;;
39218;SDS011;24934;52.752;6.964;2023-06-22T08:36:53;16.75;;;15.15;;
39218;SDS011;24934;52.752;6.964;2023-06-22T08:39:21;16.33;;;14.73;;
39218;SDS011;24934;52.752;6.964;2023-06-22T08:41:47;16.65;;;15.15;;
39218;SDS011;24934;52.752;6.964;2023-06-22T08:44:13;17.60;;;16.00;;
39218;SDS011;24934;52.752;6.964;2023-06-22T08:46:40;18.40;;;16.63;;
39218;SDS011;24934;52.752;6.964;2023-06-22T08:49:07;18.00;;;16.27;;
39218;SDS011;24934;52.752;6.964;2023-06-22T08:51:34;17.08;;;15.32;;
39218;SDS011;24934;52.752;6.964;2023-06-22T08:54:00;16.75;;;15.00;;
39218;SDS011;24934;52.752;6.964;2023-06-22T08:56:26;16.20;;;14.65;;
39218;SDS011;24934;52.752;6.964;2023-06-22T08:58:51;16.50;;;14.82;;
39218;SDS011;24934;52.752;6.964;2023-06-22T09:01:17;16.40;;;14.80;;
39218;SDS011;24934;52.752;6.964;2023-06-22T09:03:43;15.98;;;14.45;;
39218;SDS011;24934;52.752;6.964;2023-06-22T09:06:18;17.75;;;14.30;;
39218;SDS011;24934;52.752;6.964;2023-06-22T09:08:44;16.20;;;14.55;;
39218;SDS011;24934;52.752;6.964;2023-06-22T09:11:11;15.90;;;14.48;;
39218;SDS011;24934;52.752;6.964;2023-06-22T09:13:36;15.65;;;14.07;;
39218;SDS011;24934;52.752;6.964;2023-06-22T09:16:02;14.20;;;12.90;;
39218;SDS011;24934;52.752;6.964;2023-06-22T09:18:28;15.70;;;14.30;;
39218;SDS011;24934;52.752;6.964;2023-06-22T09:20:54;15.95;;;14.55;;
39218;SDS011;24934;52.752;6.964;2023-06-22T09:23:19;15.52;;;14.02;;
39218;SDS011;24934;52.752;6.964;2023-06-22T09:25:45;15.98;;;14.43;;
39218;SDS011;24934;52.752;6.964;2023-06-22T09:28:12;15.75;;;14.25;;
39218;SDS011;24934;52.752;6.964;2023-06-22T09:30:39;14.55;;;13.27;;
39218;SDS011;24934;52.752;6.964;2023-06-22T09:33:05;16.65;;;13.48;;
39218;SDS011;24934;52.752;6.964;2023-06-22T09:35:31;14.32;;;12.95;;
39218;SDS011;24934;52.752;6.964;2023-06-22T09:37:57;16.33;;;14.63;;
39218;SDS011;24934;52.752;6.964;2023-06-22T09:40:24;15.73;;;14.13;;
39218;SDS011;24934;52.752;6.964;2023-06-22T09:42:51;14.48;;;13.07;;
39218;SDS011;24934;52.752;6.964;2023-06-22T09:45:16;14.57;;;13.38;;
39218;SDS011;24934;52.752;6.964;2023-06-22T09:47:42;15.18;;;13.82;;
39218;SDS011;24934;52.752;6.964;2023-06-22T09:50:08;14.10;;;12.57;;
39218;SDS011;24934;52.752;6.964;2023-06-22T09:52:34;14.65;;;13.32;;
39218;SDS011;24934;52.752;6.964;2023-06-22T09:54:59;13.98;;;12.68;;
39218;SDS011;24934;52.752;6.964;2023-06-22T09:57:25;13.43;;;12.13;;
39218;SDS011;24934;52.752;6.964;2023-06-22T09:59:51;14.05;;;12.82;;
39218;SDS011;24934;52.752;6.964;2023-06-22T10:02:16;14.88;;;13.57;;
39218;SDS011;24934;52.752;6.964;2023-06-22T10:04:42;13.32;;;12.23;;
39218;SDS011;24934;52.752;6.964;2023-06-22T10:07:08;15.10;;;13.80;;
39218;SDS011;24934;52.752;6.964;2023-06-22T10:09:33;15.13;;;13.63;;
39218;SDS011;24934;52.752;6.964;2023-06-22T10:11:59;16.50;;;14.98;;
39218;SDS011;24934;52.752;6.964;2023-06-22T10:14:24;16.20;;;14.70;;
39218;SDS011;24934;52.752;6.964;2023-06-22T10:16:52;16.10;;;14.70;;
39218;SDS011;24934;52.752;6.964;2023-06-22T10:19:18;14.75;;;13.48;;
39218;SDS011;24934;52.752;6.964;2023-06-22T10:21:44;15.75;;;14.35;;
39218;SDS011;24934;52.752;6.964;2023-06-22T10:24:10;16.10;;;14.60;;
39218;SDS011;24934;52.752;6.964;2023-06-22T10:26:36;16.50;;;15.00;;
39218;SDS011;24934;52.752;6.964;2023-06-22T10:29:02;15.20;;;13.80;;
39218;SDS011;24934;52.752;6.964;2023-06-22T10:31:28;17.10;;;13.50;;
39218;SDS011;24934;52.752;6.964;2023-06-22T10:33:54;16.73;;;14.75;;
39218;SDS011;24934;52.752;6.964;2023-06-22T10:36:21;14.05;;;12.85;;
39218;SDS011;24934;52.752;6.964;2023-06-22T10:38:47;15.02;;;13.63;;
39218;SDS011;24934;52.752;6.964;2023-06-22T10:41:13;14.40;;;13.20;;
39218;SDS011;24934;52.752;6.964;2023-06-22T10:43:39;14.15;;;12.93;;
39218;SDS011;24934;52.752;6.964;2023-06-22T10:46:04;16.45;;;14.85;;
39218;SDS011;24934;52.752;6.964;2023-06-22T10:48:31;14.63;;;13.27;;
39218;SDS011;24934;52.752;6.964;2023-06-22T10:50:57;14.85;;;13.27;;
39218;SDS011;24934;52.752;6.964;2023-06-22T10:53:22;14.35;;;13.05;;
39218;SDS011;24934;52.752;6.964;2023-06-22T10:55:48;15.73;;;14.23;;
39218;SDS011;24934;52.752;6.964;2023-06-22T10:58:14;14.27;;;12.98;;
39218;SDS011;24934;52.752;6.964;2023-06-22T11:00:40;14.63;;;13.18;;
39218;SDS011;24934;52.752;6.964;2023-06-22T11:03:05;14.07;;;12.77;;
39218;SDS011;24934;52.752;6.964;2023-06-22T11:05:31;14.18;;;12.45;;
39218;SDS011;24934;52.752;6.964;2023-06-22T11:07:57;11.15;;;10.05;;
39218;SDS011;24934;52.752;6.964;2023-06-22T11:10:23;11.93;;;10.80;;
39218;SDS011;24934;52.752;6.964;2023-06-22T11:12:48;11.10;;;10.00;;
39218;SDS011;24934;52.752;6.964;2023-06-22T11:15:14;12.18;;;11.05;;
39218;SDS011;24934;52.752;6.964;2023-06-22T11:17:39;12.18;;;10.63;;
39218;SDS011;24934;52.752;6.964;2023-06-22T11:20:05;11.65;;;10.55;;
39218;SDS011;24934;52.752;6.964;2023-06-22T11:22:38;11.45;;;10.30;;
39218;SDS011;24934;52.752;6.964;2023-06-22T11:25:05;11.00;;;10.00;;
39218;SDS011;24934;52.752;6.964;2023-06-22T11:27:33;10.90;;;9.80;;
39218;SDS011;24934;52.752;6.964;2023-06-22T11:29:58;11.68;;;10.57;;
39218;SDS011;24934;52.752;6.964;2023-06-22T11:32:24;10.57;;;9.60;;
39218;SDS011;24934;52.752;6.964;2023-06-22T11:34:50;11.68;;;10.57;;
39218;SDS011;24934;52.752;6.964;2023-06-22T11:37:16;13.50;;;10.75;;
39218;SDS011;24934;52.752;6.964;2023-06-22T11:39:42;11.27;;;10.18;;
39218;SDS011;24934;52.752;6.964;2023-06-22T11:42:08;10.10;;;9.10;;
39218;SDS011;24934;52.752;6.964;2023-06-22T11:44:34;11.13;;;9.95;;
39218;SDS011;24934;52.752;6.964;2023-06-22T11:47:00;11.70;;;9.15;;
39218;SDS011;24934;52.752;6.964;2023-06-22T11:49:26;9.40;;;8.50;;
39218;SDS011;24934;52.752;6.964;2023-06-22T11:51:52;9.52;;;8.73;;
39218;SDS011;24934;52.752;6.964;2023-06-22T11:54:18;9.00;;;8.20;;
39218;SDS011;24934;52.752;6.964;2023-06-22T11:56:43;10.68;;;9.75;;
39218;SDS011;24934;52.752;6.964;2023-06-22T11:59:09;10.90;;;9.90;;
39218;SDS011;24934;52.752;6.964;2023-06-22T12:01:35;10.55;;;9.65;;
39218;SDS011;24934;52.752;6.964;2023-06-22T12:04:00;10.90;;;9.80;;
39218;SDS011;24934;52.752;6.964;2023-06-22T12:06:26;9.65;;;8.73;;
39218;SDS011;24934;52.752;6.964;2023-06-22T12:08:52;10.23;;;9.32;;
39218;SDS011;24934;52.752;6.964;2023-06-22T12:11:17;9.60;;;8.50;;
39218;SDS011;24934;52.752;6.964;2023-06-22T12:13:43;9.13;;;8.18;;
39218;SDS011;24934;52.752;6.964;2023-06-22T12:16:09;8.68;;;7.93;;
39218;SDS011;24934;52.752;6.964;2023-06-22T12:18:34;9.55;;;7.43;;
39218;SDS011;24934;52.752;6.964;2023-06-22T12:21:00;8.27;;;7.50;;
39218;SDS011;24934;52.752;6.964;2023-06-22T12:23:26;9.00;;;8.10;;
39218;SDS011;24934;52.752;6.964;2023-06-22T12:25:51;9.00;;;8.00;;
39218;SDS011;24934;52.752;6.964;2023-06-22T12:28:17;9.05;;;7.55;;
39218;SDS011;24934;52.752;6.964;2023-06-22T12:30:42;7.95;;;7.18;;
39218;SDS011;24934;52.752;6.964;2023-06-22T12:33:08;7.22;;;6.60;;
39218;SDS011;24934;52.752;6.964;2023-06-22T12:35:34;8.63;;;7.82;;
39218;SDS011;24934;52.752;6.964;2023-06-22T12:38:00;9.80;;;8.90;;
39218;SDS011;24934;52.752;6.964;2023-06-22T12:40:25;10.02;;;8.40;;
39218;SDS011;24934;52.752;6.964;2023-06-22T12:42:51;8.88;;;7.97;;
39218;SDS011;24934;52.752;6.964;2023-06-22T12:45:17;9.27;;;8.48;;
39218;SDS011;24934;52.752;6.964;2023-06-22T12:47:43;9.85;;;8.65;;
39218;SDS011;24934;52.752;6.964;2023-06-22T12:50:09;9.18;;;8.40;;
39218;SDS011;24934;52.752;6.964;2023-06-22T12:52:36;9.15;;;8.23;;
39218;SDS011;24934;52.752;6.964;2023-06-22T12:55:06;9.68;;;8.55;;
39218;SDS011;24934;52.752;6.964;2023-06-22T12:57:32;9.25;;;8.35;;
39218;SDS011;24934;52.752;6.964;2023-06-22T12:59:58;9.75;;;8.95;;
39218;SDS011;24934;52.752;6.964;2023-06-22T13:02:25;9.98;;;9.10;;
39218;SDS011;24934;52.752;6.964;2023-06-22T13:04:51;9.93;;;9.02;;
39218;SDS011;24934;52.752;6.964;2023-06-22T13:07:16;9.65;;;8.85;;
39218;SDS011;24934;52.752;6.964;2023-06-22T13:09:42;10.52;;;9.75;;
39218;SDS011;24934;52.752;6.964;2023-06-22T13:12:10;11.10;;;10.10;;
39218;SDS011;24934;52.752;6.964;2023-06-22T13:14:35;11.15;;;10.15;;
39218;SDS011;24934;52.752;6.964;2023-06-22T13:17:01;11.40;;;10.43;;
39218;SDS011;24934;52.752;6.964;2023-06-22T13:19:27;12.25;;;10.10;;
39218;SDS011;24934;52.752;6.964;2023-06-22T13:21:57;10.43;;;9.48;;
39218;SDS011;24934;52.752;6.964;2023-06-22T13:24:22;10.80;;;9.90;;
39218;SDS011;24934;52.752;6.964;2023-06-22T13:26:48;10.90;;;10.00;;
39218;SDS011;24934;52.752;6.964;2023-06-22T13:29:14;10.98;;;9.88;;
39218;SDS011;24934;52.752;6.964;2023-06-22T13:31:40;11.40;;;10.43;;
39218;SDS011;24934;52.752;6.964;2023-06-22T13:34:05;12.05;;;10.95;;
39218;SDS011;24934;52.752;6.964;2023-06-22T13:36:31;11.95;;;10.27;;
39218;SDS011;24934;52.752;6.964;2023-06-22T13:38:57;11.23;;;10.13;;
39218;SDS011;24934;52.752;6.964;2023-06-22T13:41:23;11.52;;;10.50;;
39218;SDS011;24934;52.752;6.964;2023-06-22T13:43:51;11.13;;;10.23;;
39218;SDS011;24934;52.752;6.964;2023-06-22T13:46:19;11.52;;;10.63;;
39218;SDS011;24934;52.752;6.964;2023-06-22T13:48:45;11.23;;;10.25;;
39218;SDS011;24934;52.752;6.964;2023-06-22T13:51:10;10.98;;;10.05;;
39218;SDS011;24934;52.752;6.964;2023-06-22T13:53:36;10.77;;;9.77;;
39218;SDS011;24934;52.752;6.964;2023-06-22T13:56:02;10.88;;;9.98;;
39218;SDS011;24934;52.752;6.964;2023-06-22T13:58:28;11.98;;;10.63;;
39218;SDS011;24934;52.752;6.964;2023-06-22T14:00:56;11.05;;;10.10;;
39218;SDS011;24934;52.752;6.964;2023-06-22T14:03:22;11.52;;;10.52;;
39218;SDS011;24934;52.752;6.964;2023-06-22T14:05:47;12.13;;;11.02;;
39218;SDS011;24934;52.752;6.964;2023-06-22T14:08:13;11.88;;;10.77;;
39218;SDS011;24934;52.752;6.964;2023-06-22T14:10:39;12.20;;;10.90;;
39218;SDS011;24934;52.752;6.964;2023-06-22T14:13:05;13.07;;;11.77;;
39218;SDS011;24934;52.752;6.964;2023-06-22T14:15:31;14.35;;;12.40;;
39218;SDS011;24934;52.752;6.964;2023-06-22T14:18:00;12.77;;;11.40;;
39218;SDS011;24934;52.752;6.964;2023-06-22T14:20:25;13.60;;;12.07;;
39218;SDS011;24934;52.752;6.964;2023-06-22T14:22:51;13.45;;;12.15;;
39218;SDS011;24934;52.752;6.964;2023-06-22T14:25:16;12.77;;;11.60;;
39218;SDS011;24934;52.752;6.964;2023-06-22T14:27:42;12.80;;;11.70;;